地図

経路データ

SID SEASON NUMBER BASIN SUBBASIN NAME ISO_TIME NATURE LAT LON WMO_WIND WMO_PRES WMO_AGENCY TRACK_TYPE DIST2LAND LANDFALL IFLAG USA_AGENCY USA_ATCF_ID USA_LAT USA_LON USA_RECORD USA_STATUS USA_WIND USA_PRES USA_SSHS USA_R34_NE USA_R34_SE USA_R34_SW USA_R34_NW USA_R50_NE USA_R50_SE USA_R50_SW USA_R50_NW USA_R64_NE USA_R64_SE USA_R64_SW USA_R64_NW USA_POCI USA_ROCI USA_RMW USA_EYE TOKYO_LAT TOKYO_LON TOKYO_GRADE TOKYO_WIND TOKYO_PRES TOKYO_R50_DIR TOKYO_R50_LONG TOKYO_R50_SHORT TOKYO_R30_DIR TOKYO_R30_LONG TOKYO_R30_SHORT TOKYO_LAND CMA_LAT CMA_LON CMA_CAT CMA_WIND CMA_PRES HKO_LAT HKO_LON HKO_CAT HKO_WIND HKO_PRES NEWDELHI_LAT NEWDELHI_LON NEWDELHI_GRADE NEWDELHI_WIND NEWDELHI_PRES NEWDELHI_CI NEWDELHI_DP NEWDELHI_POCI REUNION_LAT REUNION_LON REUNION_TYPE REUNION_WIND REUNION_PRES REUNION_TNUM REUNION_CI REUNION_RMW REUNION_R34_NE REUNION_R34_SE REUNION_R34_SW REUNION_R34_NW REUNION_R50_NE REUNION_R50_SE REUNION_R50_SW REUNION_R50_NW REUNION_R64_NE REUNION_R64_SE REUNION_R64_SW REUNION_R64_NW BOM_LAT BOM_LON BOM_TYPE BOM_WIND BOM_PRES BOM_TNUM BOM_CI BOM_RMW BOM_R34_NE BOM_R34_SE BOM_R34_SW BOM_R34_NW BOM_R50_NE BOM_R50_SE BOM_R50_SW BOM_R50_NW BOM_R64_NE BOM_R64_SE BOM_R64_SW BOM_R64_NW BOM_ROCI BOM_POCI BOM_EYE BOM_POS_METHOD BOM_PRES_METHOD NADI_LAT NADI_LON NADI_CAT NADI_WIND NADI_PRES WELLINGTON_LAT WELLINGTON_LON WELLINGTON_WIND WELLINGTON_PRES DS824_LAT DS824_LON DS824_STAGE DS824_WIND DS824_PRES TD9636_LAT TD9636_LON TD9636_STAGE TD9636_WIND TD9636_PRES TD9635_LAT TD9635_LON TD9635_WIND TD9635_PRES TD9635_ROCI NEUMANN_LAT NEUMANN_LON NEUMANN_CLASS NEUMANN_WIND NEUMANN_PRES MLC_LAT MLC_LON MLC_CLASS MLC_WIND MLC_PRES USA_GUST BOM_GUST BOM_GUST_PER REUNION_GUST REUNION_GUST_PER USA_SEAHGT USA_SEARAD_NE USA_SEARAD_SE USA_SEARAD_SW USA_SEARAD_NW STORM_SPEED STORM_DIR
1900250N15332 1900 24 NA NA NOT_NAMED 1900-09-07 00:00:00 TS 14.5000 -28.0000 35 hurdat_atl main 1130 1130 O_____________ hurdat_atl AL021900 14.5000 -28.0000 TS 35 0 15 277
1900250N15332 1900 24 NA NA NOT_NAMED 1900-09-07 03:00:00 TS 14.5879 -28.7450 main 1205 1205 P_____________ AL021900 14.5879 -28.7450 TS 37 0 15 278
1900250N15332 1900 24 NA NA NOT_NAMED 1900-09-07 06:00:00 TS 14.7000 -29.5000 40 hurdat_atl main 1291 1291 O_____________ hurdat_atl AL021900 14.7000 -29.5000 TS 40 0 15 280
1900250N15332 1900 24 NA NA NOT_NAMED 1900-09-07 09:00:00 TS 14.8499 -30.2649 main 1376 1376 P_____________ AL021900 14.8499 -30.2649 TS 42 0 15 282
1900250N15332 1900 24 NA NA NOT_NAMED 1900-09-07 12:00:00 TS 15.0000 -31.0000 45 hurdat_atl main 1451 1451 O_____________ hurdat_atl AL021900 15.0000 -31.0000 TS 45 0 14 281
1900250N15332 1900 24 NA NA NOT_NAMED 1900-09-07 15:00:00 TS 15.1147 -31.6651 main 1526 1526 P_____________ AL021900 15.1147 -31.6651 TS 47 0 13 279
1900250N15332 1900 24 NA NA NOT_NAMED 1900-09-07 18:00:00 TS 15.2000 -32.3000 50 hurdat_atl main 1591 1591 O_____________ hurdat_atl AL021900 15.2000 -32.3000 TS 50 0 13 277
1900250N15332 1900 24 NA NA NOT_NAMED 1900-09-07 21:00:00 TS 15.2574 -32.9576 main 1666 1666 P_____________ AL021900 15.2574 -32.9576 TS 52 0 13 275
1900250N15332 1900 24 NA NA NOT_NAMED 1900-09-08 00:00:00 TS 15.3000 -33.6000 55 hurdat_atl main 1730 1730 O_____________ hurdat_atl AL021900 15.3000 -33.6000 TS 55 0 12 274
1900250N15332 1900 24 NA NA NOT_NAMED 1900-09-08 03:00:00 TS 15.3498 -34.2075 main 1795 1795 P_____________ AL021900 15.3498 -34.2075 TS 57 0 12 275
1900250N15332 1900 24 NA NA NOT_NAMED 1900-09-08 06:00:00 TS 15.4000 -34.8000 60 hurdat_atl main 1859 1859 O_____________ hurdat_atl AL021900 15.4000 -34.8000 TS 60 0 11 275
1900250N15332 1900 24 NA NA NOT_NAMED 1900-09-08 09:00:00 TS 15.4423 -35.3926 main 1924 1924 P_____________ AL021900 15.4423 -35.3926 TS 60 0 12 275
1900250N15332 1900 24 NA NA NOT_NAMED 1900-09-08 12:00:00 TS 15.5000 -36.0000 60 hurdat_atl main 1988 1988 O_____________ hurdat_atl AL021900 15.5000 -36.0000 TS 60 0 12 277
1900250N15332 1900 24 NA NA NOT_NAMED 1900-09-08 15:00:00 TS 15.5999 -36.6424 main 2046 1993 P_____________ AL021900 15.5999 -36.6424 TS 60 0 13 279
1900250N15332 1900 24 NA NA NOT_NAMED 1900-09-08 18:00:00 TS 15.7000 -37.3000 60 hurdat_atl main 1993 1951 O_____________ hurdat_atl AL021900 15.7000 -37.3000 TS 60 0 13 277
1900250N15332 1900 24 NA NA NOT_NAMED 1900-09-08 21:00:00 TS 15.7574 -37.9576 main 1942 1894 P_____________ AL021900 15.7574 -37.9576 TS 60 0 13 275
1900250N15332 1900 24 NA NA NOT_NAMED 1900-09-09 00:00:00 TS 15.8000 -38.6000 60 hurdat_atl main 1894 1846 O_____________ hurdat_atl AL021900 15.8000 -38.6000 TS 60 0 12 274
1900250N15332 1900 24 NA NA NOT_NAMED 1900-09-09 03:00:00 TS 15.8498 -39.2075 main 1846 1808 P_____________ AL021900 15.8498 -39.2075 TS 60 0 12 275
1900250N15332 1900 24 NA NA NOT_NAMED 1900-09-09 06:00:00 TS 15.9000 -39.8000 60 hurdat_atl main 1808 1763 O_____________ hurdat_atl AL021900 15.9000 -39.8000 TS 60 0 11 275
1900250N15332 1900 24 NA NA NOT_NAMED 1900-09-09 09:00:00 TS 15.9423 -40.3926 main 1763 1727 P_____________ AL021900 15.9423 -40.3926 TS 60 0 12 275
1900250N15332 1900 24 NA NA NOT_NAMED 1900-09-09 12:00:00 TS 16.0000 -41.0000 60 hurdat_atl main 1727 1694 O_____________ hurdat_atl AL021900 16.0000 -41.0000 TS 60 0 12 277
1900250N15332 1900 24 NA NA NOT_NAMED 1900-09-09 15:00:00 TS 16.0999 -41.6424 main 1694 1656 P_____________ AL021900 16.0999 -41.6424 TS 60 0 13 279
1900250N15332 1900 24 NA NA NOT_NAMED 1900-09-09 18:00:00 TS 16.2000 -42.3000 60 hurdat_atl main 1656 1624 O_____________ hurdat_atl AL021900 16.2000 -42.3000 TS 60 0 13 277
1900250N15332 1900 24 NA NA NOT_NAMED 1900-09-09 21:00:00 TS 16.2574 -42.9576 main 1621 1584 P_____________ AL021900 16.2574 -42.9576 TS 60 0 13 275
1900250N15332 1900 24 NA NA NOT_NAMED 1900-09-10 00:00:00 TS 16.3000 -43.6000 60 hurdat_atl main 1584 1544 O_____________ hurdat_atl AL021900 16.3000 -43.6000 TS 60 0 12 274
1900250N15332 1900 24 NA NA NOT_NAMED 1900-09-10 03:00:00 TS 16.3498 -44.2075 main 1544 1515 P_____________ AL021900 16.3498 -44.2075 TS 60 0 12 275
1900250N15332 1900 24 NA NA NOT_NAMED 1900-09-10 06:00:00 TS 16.4000 -44.8000 60 hurdat_atl main 1515 1480 O_____________ hurdat_atl AL021900 16.4000 -44.8000 TS 60 0 11 275
1900250N15332 1900 24 NA NA NOT_NAMED 1900-09-10 09:00:00 TS 16.4423 -45.4001 main 1480 1456 P_____________ AL021900 16.4423 -45.4001 TS 60 0 12 275
1900250N15332 1900 24 NA NA NOT_NAMED 1900-09-10 12:00:00 TS 16.5000 -46.0000 60 hurdat_atl main 1456 1434 O_____________ hurdat_atl AL021900 16.5000 -46.0000 TS 60 0 12 278
1900250N15332 1900 24 NA NA NOT_NAMED 1900-09-10 15:00:00 TS 16.5999 -46.6074 main 1434 1415 P_____________ AL021900 16.5999 -46.6074 TS 60 0 12 280
1900250N15332 1900 24 NA NA NOT_NAMED 1900-09-10 18:00:00 TS 16.7000 -47.2000 60 hurdat_atl main 1415 1392 O_____________ hurdat_atl AL021900 16.7000 -47.2000 TS 60 0 11 278
1900250N15332 1900 24 NA NA NOT_NAMED 1900-09-10 21:00:00 TS 16.7573 -47.7576 main 1398 1378 P_____________ AL021900 16.7573 -47.7576 TS 60 0 11 275
1900250N15332 1900 24 NA NA NOT_NAMED 1900-09-11 00:00:00 TS 16.8000 -48.3000 60 hurdat_atl main 1378 1354 O_____________ hurdat_atl AL021900 16.8000 -48.3000 TS 60 0 11 275
1900250N15332 1900 24 NA NA NOT_NAMED 1900-09-11 03:00:00 TS 16.8499 -48.8500 main 1350 1338 P_____________ AL021900 16.8499 -48.8500 TS 60 0 11 275
1900250N15332 1900 24 NA NA NOT_NAMED 1900-09-11 06:00:00 TS 16.9000 -49.4000 60 hurdat_atl main 1338 1317 O_____________ hurdat_atl AL021900 16.9000 -49.4000 TS 60 0 11 275
1900250N15332 1900 24 NA NA NOT_NAMED 1900-09-11 09:00:00 TS 16.9423 -49.9426 main 1317 1306 P_____________ AL021900 16.9423 -49.9426 TS 60 0 11 275
1900250N15332 1900 24 NA NA NOT_NAMED 1900-09-11 12:00:00 TS 17.0000 -50.5000 60 hurdat_atl main 1306 1286 O_____________ hurdat_atl AL021900 17.0000 -50.5000 TS 60 0 11 278
1900250N15332 1900 24 NA NA NOT_NAMED 1900-09-11 15:00:00 TS 17.1000 -51.0999 main 1286 1239 P_____________ AL021900 17.1000 -51.0999 TS 60 0 12 280
1900250N15332 1900 24 NA NA NOT_NAMED 1900-09-11 18:00:00 TS 17.2000 -51.7000 60 hurdat_atl main 1239 1196 O_____________ hurdat_atl AL021900 17.2000 -51.7000 TS 60 0 11 278
1900250N15332 1900 24 NA NA NOT_NAMED 1900-09-11 21:00:00 TS 17.2573 -52.2576 main 1194 1152 P_____________ AL021900 17.2573 -52.2576 TS 60 0 11 275
1900250N15332 1900 24 NA NA NOT_NAMED 1900-09-12 00:00:00 TS 17.3000 -52.8000 60 hurdat_atl main 1152 1111 O_____________ hurdat_atl AL021900 17.3000 -52.8000 TS 60 0 10 275
1900250N15332 1900 24 NA NA NOT_NAMED 1900-09-12 03:00:00 TS 17.3498 -53.3500 main 1103 1071 P_____________ AL021900 17.3498 -53.3500 TS 60 0 11 275
1900250N15332 1900 24 NA NA NOT_NAMED 1900-09-12 06:00:00 TS 17.4000 -53.9000 60 hurdat_atl main 1071 1034 O_____________ hurdat_atl AL021900 17.4000 -53.9000 TS 60 0 11 275
1900250N15332 1900 24 NA NA NOT_NAMED 1900-09-12 09:00:00 TS 17.4424 -54.4501 main 1026 999 P_____________ AL021900 17.4424 -54.4501 TS 60 0 11 275
1900250N15332 1900 24 NA NA NOT_NAMED 1900-09-12 12:00:00 TS 17.5000 -55.0000 60 hurdat_atl main 999 973 O_____________ hurdat_atl AL021900 17.5000 -55.0000 TS 60 0 11 278
1900250N15332 1900 24 NA NA NOT_NAMED 1900-09-12 15:00:00 TS 17.5848 -55.5501 main 967 944 P_____________ AL021900 17.5848 -55.5501 TS 60 0 11 281
1900250N15332 1900 24 NA NA NOT_NAMED 1900-09-12 18:00:00 TS 17.7000 -56.1000 60 hurdat_atl main 944 925 O_____________ hurdat_atl AL021900 17.7000 -56.1000 TS 60 0 11 283
1900250N15332 1900 24 NA NA NOT_NAMED 1900-09-12 21:00:00 TS 17.8273 -56.6502 main 920 888 P_____________ AL021900 17.8273 -56.6502 TS 60 0 11 286
1900250N15332 1900 24 NA NA NOT_NAMED 1900-09-13 00:00:00 TS 18.0000 -57.2000 60 hurdat_atl main 888 834 O_____________ hurdat_atl AL021900 18.0000 -57.2000 TS 60 0 11 291
1900250N15332 1900 24 NA NA NOT_NAMED 1900-09-13 03:00:00 TS 18.2349 -57.7575 main 823 770 P_____________ AL021900 18.2349 -57.7575 TS 60 0 12 296
1900250N15332 1900 24 NA NA NOT_NAMED 1900-09-13 06:00:00 TS 18.5000 -58.3000 60 hurdat_atl main 770 717 O_____________ hurdat_atl AL021900 18.5000 -58.3000 TS 60 0 11 297
1900250N15332 1900 24 NA NA NOT_NAMED 1900-09-13 09:00:00 TS 18.7500 -58.8301 main 717 666 P_____________ AL021900 18.7500 -58.8301 TS 62 0 11 298
1900250N15332 1900 24 NA NA NOT_NAMED 1900-09-13 12:00:00 TS 19.0000 -59.3000 65 hurdat_atl main 666 627 O_____________ hurdat_atl AL021900 19.0000 -59.3000 HU 65 1 9 302
1900250N15332 1900 24 NA NA NOT_NAMED 1900-09-13 15:00:00 TS 19.2498 -59.6802 main 627 601 P_____________ AL021900 19.2498 -59.6802 HU 67 1 8 307
1900250N15332 1900 24 NA NA NOT_NAMED 1900-09-13 18:00:00 TS 19.5000 -60.0000 70 hurdat_atl main 601 575 O_____________ hurdat_atl AL021900 19.5000 -60.0000 HU 70 1 8 311
1900250N15332 1900 24 NA NA NOT_NAMED 1900-09-13 21:00:00 TS 19.7499 -60.3002 main 575 554 P_____________ AL021900 19.7499 -60.3002 HU 72 1 8 311
1900250N15332 1900 24 NA NA NOT_NAMED 1900-09-14 00:00:00 TS 20.0000 -60.6000 75 hurdat_atl main 554 532 O_____________ hurdat_atl AL021900 20.0000 -60.6000 HU 75 1 8 310
1900250N15332 1900 24 NA NA NOT_NAMED 1900-09-14 03:00:00 TS 20.2500 -60.9426 main 532 508 P_____________ AL021900 20.2500 -60.9426 HU 77 1 8 307
1900250N15332 1900 24 NA NA NOT_NAMED 1900-09-14 06:00:00 TS 20.5000 -61.3000 80 hurdat_atl main 508 491 O_____________ hurdat_atl AL021900 20.5000 -61.3000 HU 80 1 8 307
1900250N15332 1900 24 NA NA NOT_NAMED 1900-09-14 09:00:00 TS 20.7575 -61.6650 main 488 475 P_____________ AL021900 20.7575 -61.6650 HU 80 1 8 307
1900250N15332 1900 24 NA NA NOT_NAMED 1900-09-14 12:00:00 TS 21.0000 -62.0000 80 hurdat_atl main 475 466 O_____________ hurdat_atl AL021900 21.0000 -62.0000 HU 80 1 7 309
1900250N15332 1900 24 NA NA NOT_NAMED 1900-09-14 15:00:00 TS 21.2074 -62.2577 main 466 466 P_____________ AL021900 21.2074 -62.2577 HU 82 1 6 311
1900250N15332 1900 24 NA NA NOT_NAMED 1900-09-14 18:00:00 TS 21.4000 -62.5000 85 hurdat_atl main 466 459 O_____________ hurdat_atl AL021900 21.4000 -62.5000 HU 85 2 6 307
1900250N15332 1900 24 NA NA NOT_NAMED 1900-09-14 21:00:00 TS 21.6001 -62.8075 main 462 455 P_____________ AL021900 21.6001 -62.8075 HU 85 2 7 306
1900250N15332 1900 24 NA NA NOT_NAMED 1900-09-15 00:00:00 TS 21.8000 -63.1000 85 hurdat_atl main 461 455 O_____________ hurdat_atl AL021900 21.8000 -63.1000 HU 85 2 6 310
1900250N15332 1900 24 NA NA NOT_NAMED 1900-09-15 03:00:00 TS 21.9924 -63.3077 main 468 463 P_____________ AL021900 21.9924 -63.3077 HU 85 2 5 317
1900250N15332 1900 24 NA NA NOT_NAMED 1900-09-15 06:00:00 TS 22.2000 -63.5000 85 hurdat_atl main 478 478 O_____________ hurdat_atl AL021900 22.2000 -63.5000 HU 85 2 6 318
1900250N15332 1900 24 NA NA NOT_NAMED 1900-09-15 09:00:00 TS 22.4274 -63.7277 main 489 489 P_____________ AL021900 22.4274 -63.7277 HU 85 2 7 317
1900250N15332 1900 24 NA NA NOT_NAMED 1900-09-15 12:00:00 TS 22.7000 -64.0000 85 hurdat_atl main 508 508 O_____________ hurdat_atl AL021900 22.7000 -64.0000 HU 85 2 9 317
1900250N15332 1900 24 NA NA NOT_NAMED 1900-09-15 15:00:00 TS 23.0577 -64.3646 main 540 540 P_____________ AL021900 23.0577 -64.3646 HU 85 2 10 317
1900250N15332 1900 24 NA NA NOT_NAMED 1900-09-15 18:00:00 TS 23.4000 -64.7000 85 hurdat_atl main 566 566 O_____________ hurdat_atl AL021900 23.4000 -64.7000 HU 85 2 7 320
1900250N15332 1900 24 NA NA NOT_NAMED 1900-09-15 21:00:00 TS 23.6149 -64.8803 main 586 586 P_____________ AL021900 23.6149 -64.8803 HU 87 2 5 326
1900250N15332 1900 24 NA NA NOT_NAMED 1900-09-16 00:00:00 TS 23.8000 -65.0000 90 hurdat_atl main 607 607 O_____________ hurdat_atl AL021900 23.8000 -65.0000 HU 90 2 5 328
1900250N15332 1900 24 NA NA NOT_NAMED 1900-09-16 03:00:00 TS 24.0275 -65.1575 main 627 627 P_____________ AL021900 24.0275 -65.1575 HU 92 2 6 331
1900250N15332 1900 24 NA NA NOT_NAMED 1900-09-16 06:00:00 TS 24.3000 -65.3000 95 hurdat_atl main 660 660 O_____________ hurdat_atl AL021900 24.3000 -65.3000 HU 95 2 6 339
1900250N15332 1900 24 NA NA NOT_NAMED 1900-09-16 09:00:00 TS 24.6125 -65.4076 main 693 693 P_____________ AL021900 24.6125 -65.4076 HU 97 3 7 345
1900250N15332 1900 24 NA NA NOT_NAMED 1900-09-16 12:00:00 TS 25.0000 -65.5000 100 hurdat_atl main 738 738 O_____________ hurdat_atl AL021900 25.0000 -65.5000 HU 100 3 9 347
1900250N15332 1900 24 NA NA NOT_NAMED 1900-09-16 15:00:00 TS 25.4700 -65.6222 main 790 790 P_____________ AL021900 25.4700 -65.6222 HU 102 3 10 350
1900250N15332 1900 24 NA NA NOT_NAMED 1900-09-16 18:00:00 TS 26.0000 -65.7000 105 hurdat_atl main 834 834 O_____________ hurdat_atl AL021900 26.0000 -65.7000 HU 105 3 11 357
1900250N15332 1900 24 NA NA NOT_NAMED 1900-09-16 21:00:00 TS 26.5425 -65.6801 main 885 885 P_____________ AL021900 26.5425 -65.6801 HU 105 3 11 5
1900250N15332 1900 24 NA NA NOT_NAMED 1900-09-17 00:00:00 TS 27.1000 -65.6000 105 hurdat_atl main 950 950 O_____________ hurdat_atl AL021900 27.1000 -65.6000 HU 105 3 11 7
1900250N15332 1900 24 NA NA NOT_NAMED 1900-09-17 03:00:00 TS 27.6500 -65.5223 main 1004 1004 P_____________ AL021900 27.6500 -65.5223 HU 105 3 11 9
1900250N15332 1900 24 NA NA NOT_NAMED 1900-09-17 06:00:00 TS 28.2000 -65.4000 105 hurdat_atl main 1068 1068 O_____________ hurdat_atl AL021900 28.2000 -65.4000 HU 105 3 11 13
1900250N15332 1900 24 NA NA NOT_NAMED 1900-09-17 09:00:00 TS 28.6973 -65.2513 main 1122 1122 P_____________ AL021900 28.6973 -65.2513 HU 102 3 12 18
1900250N15332 1900 24 NA NA NOT_NAMED 1900-09-17 12:00:00 TS 29.3000 -65.0000 100 hurdat_atl main 1195 1188 O_____________ hurdat_atl AL021900 29.3000 -65.0000 HU 100 3 15 21
1900250N15332 1900 24 NA NA NOT_NAMED 1900-09-17 15:00:00 TS 30.1247 -64.6312 main 1196 1174 P_____________ AL021900 30.1247 -64.6312 HU 97 3 20 23
1900250N15332 1900 24 NA NA NOT_NAMED 1900-09-17 18:00:00 TS 31.1000 -64.1000 95 hurdat_atl main 1177 1171 O_____________ hurdat_atl AL021900 31.1000 -64.1000 HU 95 2 23 27
1900250N15332 1900 24 NA NA NOT_NAMED 1900-09-17 21:00:00 TS 32.1417 -63.4462 main 1186 1152 P_____________ AL021900 32.1417 -63.4462 HU 90 2 25 31
1900250N15332 1900 24 NA NA NOT_NAMED 1900-09-18 00:00:00 TS 33.2000 -62.6000 85 hurdat_atl main 1148 1091 O_____________ hurdat_atl AL021900 33.2000 -62.6000 HU 85 2 26 37
1900250N15332 1900 24 NA NA NOT_NAMED 1900-09-18 03:00:00 TS 34.2023 -61.5674 main 1083 1021 P_____________ AL021900 34.2023 -61.5674 HU 80 1 26 44
1900250N15332 1900 24 NA NA NOT_NAMED 1900-09-18 06:00:00 TS 35.1000 -60.4000 75 hurdat_atl main 1024 997 O_____________ hurdat_atl AL021900 35.1000 -60.4000 HU 75 1 25 50
1900250N15332 1900 24 NA NA NOT_NAMED 1900-09-18 09:00:00 TS 35.8300 -59.1823 main 1002 989 P_____________ AL021900 35.8300 -59.1823 HU 70 1 24 54
1900250N15332 1900 24 NA NA NOT_NAMED 1900-09-18 12:00:00 TS 36.5000 -58.0000 65 hurdat_atl main 994 950 O_____________ hurdat_atl AL021900 36.5000 -58.0000 HU 65 1 22 51
1900250N15332 1900 24 NA NA NOT_NAMED 1900-09-18 15:00:00 TS 37.2244 -57.0176 main 953 901 P_____________ AL021900 37.2244 -57.0176 HU 57 0 22 47
1900250N15332 1900 24 NA NA NOT_NAMED 1900-09-18 18:00:00 TS 38.0000 -56.0000 50 hurdat_atl main 905 872 O_____________ hurdat_atl AL021900 38.0000 -56.0000 TS 50 0 24 48
1900250N15332 1900 24 NA NA NOT_NAMED 1900-09-18 21:00:00 TS 38.8255 -54.7587 main 872 767 P_____________ AL021900 38.8255 -54.7587 TS 42 0 27 51
1900250N15332 1900 24 NA NA NOT_NAMED 1900-09-19 00:00:00 TS 39.7000 -53.3000 35 hurdat_atl main 767 677 O_____________ hurdat_atl AL021900 39.7000 -53.3000 TS 35 0 30 54
1900250N15332 1900 24 NA NA NOT_NAMED 1900-09-19 03:00:00 TS 40.6013 -51.6234 main 679 624 P_____________ AL021900 40.6013 -51.6234 TS 32 -1 32 56
1900250N15332 1900 24 NA NA NOT_NAMED 1900-09-19 06:00:00 TS 41.5000 -49.8000 30 hurdat_atl main 628 O_____________ hurdat_atl AL021900 41.5000 -49.8000 TD 30 -1 33 57

IBTrACS Databaseについて

本データベースは、米国NOAAが公開する1842年以降の世界の熱帯低気圧のベストトラックデータアーカイブInternational Best Track Archive for Climate Stewardship (IBTrACS)を、ウェブで閲覧しやすい形式に変換したものです。

最終更新日:2021-10-08